Neudorf, Canada
Current Conditions -  °F | °C
As of 6:01 AM on Thursday 29 Jan 2015 (Local Time) from CYQV Reporting Station
Overcast Overcast  
Wind Chill: -8°   Ceiling: 1700
Heat Index:   Visibility: 9mi
Dew Point:   Wind: 8mph
Humidity: 78%   Direction: 360°N
Pressure: 30.45"   Gusts: NA
Location:  50.72°N, 103°W
Report Text: CYQV 291201Z AUTO 36007KT 9SM OVC017 M15/M18 A3045 RMK SLP356
Loading
Personal Weather Stations






























Interactive Weather Map New forecast layout! Learn more

10-Day Weather Forecast

Advertisements
Track Severe Weather on mobile